createdAt,value
2022-10-02T00:00:32.976Z,10.10
2022-10-02T00:01:33.094Z,11.00
2022-10-02T00:02:33.009Z,10.40
2022-10-02T00:03:33.010Z,10.60
2022-10-02T00:04:33.105Z,11.00
2022-10-02T00:05:33.046Z,11.70
2022-10-02T00:06:33.389Z,11.60
2022-10-02T00:07:33.089Z,11.10
2022-10-02T00:08:33.146Z,11.50
2022-10-02T00:09:33.164Z,11.80
2022-10-02T00:10:33.216Z,11.50
2022-10-02T00:11:33.251Z,12.70
2022-10-02T00:12:33.280Z,12.70
2022-10-02T00:13:33.310Z,11.90
2022-10-02T00:14:33.336Z,11.70
2022-10-02T00:15:33.353Z,12.70
2022-10-02T00:16:33.875Z,12.50
2022-10-02T00:17:33.396Z,12.40
2022-10-02T00:18:33.459Z,12.80
2022-10-02T00:19:33.455Z,10.90
2022-10-02T00:20:33.486Z,12.30
2022-10-02T00:21:33.535Z,11.30
2022-10-02T00:22:33.565Z,12.40
2022-10-02T00:23:33.576Z,11.50
2022-10-02T00:24:33.601Z,12.20
2022-10-02T00:25:33.622Z,14.00
2022-10-02T00:26:34.157Z,12.10
2022-10-02T00:27:33.662Z,11.40
2022-10-02T00:28:33.732Z,12.60
2022-10-02T00:29:33.726Z,14.30
2022-10-02T00:30:33.784Z,12.70
2022-10-02T00:31:33.998Z,12.60
2022-10-02T00:32:33.832Z,14.30
2022-10-02T00:33:33.852Z,10.50
2022-10-02T00:34:33.889Z,13.10
2022-10-02T00:35:33.897Z,11.70
2022-10-02T00:36:34.302Z,11.60
2022-10-02T00:37:33.949Z,10.00
2022-10-02T00:38:33.992Z,10.20
2022-10-02T00:39:34.000Z,10.40
2022-10-02T00:40:34.042Z,9.70
2022-10-02T00:41:34.070Z,9.60
2022-10-02T00:42:34.097Z,11.60
2022-10-02T00:43:34.142Z,9.90
2022-10-02T00:44:34.145Z,6.40
2022-10-02T00:45:34.244Z,6.60
2022-10-02T00:46:34.495Z,6.70
2022-10-02T00:47:34.219Z,6.40
2022-10-02T00:48:34.277Z,7.10
2022-10-02T00:49:34.251Z,7.40
2022-10-02T00:51:40.344Z,7.10
2022-10-02T00:52:40.359Z,6.70
2022-10-02T00:53:40.531Z,6.20
2022-10-02T00:54:40.406Z,7.00
2022-10-02T00:55:40.399Z,7.30
2022-10-02T00:56:40.469Z,8.60
2022-10-02T00:57:40.442Z,9.00
2022-10-02T00:58:40.486Z,7.10
2022-10-02T00:59:40.519Z,7.70
2022-10-02T01:00:40.635Z,7.40
2022-10-02T01:01:40.746Z,8.10
2022-10-02T01:02:40.597Z,7.30
2022-10-02T01:03:40.780Z,7.70
2022-10-02T01:04:40.677Z,6.60
2022-10-02T01:05:40.682Z,8.20
2022-10-02T01:06:40.811Z,7.30
2022-10-02T01:07:40.698Z,7.80
2022-10-02T01:08:40.728Z,8.40
2022-10-02T01:09:40.750Z,7.50
2022-10-02T01:10:40.771Z,7.60
2022-10-02T01:13:34.777Z,7.50
2022-10-02T01:14:35.009Z,7.80
2022-10-02T01:15:34.897Z,7.70
2022-10-02T01:16:35.346Z,8.10
2022-10-02T01:17:34.932Z,7.80
2022-10-02T01:18:34.994Z,7.80
2022-10-02T01:19:34.972Z,7.50
2022-10-02T01:20:35.030Z,7.60
2022-10-02T01:21:35.026Z,7.00
2022-10-02T01:22:35.074Z,6.70
2022-10-02T01:23:35.186Z,8.10
2022-10-02T01:24:35.262Z,6.50
2022-10-02T01:25:35.128Z,6.00
2022-10-02T01:26:35.460Z,6.20
2022-10-02T01:27:38.977Z,6.00
2022-10-02T01:28:35.309Z,6.10
2022-10-02T01:29:35.184Z,6.80
2022-10-02T01:30:35.226Z,4.90
2022-10-02T01:31:35.269Z,5.90
2022-10-02T01:32:44.360Z,5.80
2022-10-02T01:33:35.292Z,5.70
2022-10-02T01:34:35.302Z,6.40
2022-10-02T01:35:35.271Z,6.00
2022-10-02T01:36:35.608Z,6.80
2022-10-02T01:37:35.299Z,6.50
2022-10-02T01:38:35.351Z,6.40
2022-10-02T01:39:35.366Z,7.10
2022-10-02T01:40:35.418Z,7.40
2022-10-02T01:41:35.395Z,7.40
2022-10-02T01:42:35.436Z,7.00
2022-10-02T01:43:35.476Z,8.70
2022-10-02T01:44:35.491Z,8.70
2022-10-02T01:45:35.511Z,9.20
2022-10-02T01:46:35.907Z,8.70
2022-10-02T01:47:35.515Z,8.70
2022-10-02T01:48:35.591Z,9.00
2022-10-02T01:49:35.563Z,8.20
2022-10-02T01:50:35.631Z,10.60
2022-10-02T01:51:35.607Z,9.90
2022-10-02T01:52:35.674Z,10.00
2022-10-02T01:53:35.653Z,9.40
2022-10-02T01:54:35.709Z,9.20
2022-10-02T01:55:35.745Z,9.40
2022-10-02T01:56:35.972Z,8.70
2022-10-02T01:57:35.802Z,8.50
2022-10-02T01:58:35.809Z,9.40
2022-10-02T01:59:35.824Z,9.00
2022-10-02T02:00:35.895Z,10.10
2022-10-02T02:01:35.855Z,8.70
2022-10-02T02:02:36.041Z,8.70
2022-10-02T02:03:35.899Z,8.90
2022-10-02T02:04:35.943Z,8.90
2022-10-02T02:05:35.954Z,9.60
2022-10-02T02:06:36.341Z,9.00
2022-10-02T02:07:36.008Z,9.70
2022-10-02T02:08:36.023Z,9.40
2022-10-02T02:09:36.033Z,9.30
2022-10-02T02:10:36.119Z,9.40
2022-10-02T02:11:36.076Z,9.80
2022-10-02T02:12:36.127Z,9.30
2022-10-02T02:13:36.121Z,10.10
2022-10-02T02:14:36.165Z,9.40
2022-10-02T02:15:36.177Z,10.60
2022-10-02T02:16:36.373Z,10.50
2022-10-02T02:17:36.237Z,10.30
2022-10-02T02:18:36.260Z,11.60
2022-10-02T02:19:36.263Z,9.70
2022-10-02T02:20:36.314Z,11.70
2022-10-02T02:21:36.292Z,11.10
2022-10-02T02:22:36.488Z,11.50
2022-10-02T02:23:36.340Z,10.60
2022-10-02T02:24:36.371Z,11.10
2022-10-02T02:25:36.390Z,10.20
2022-10-02T02:26:41.296Z,11.10
2022-10-02T02:27:41.449Z,11.40
2022-10-02T02:28:41.595Z,13.30
2022-10-02T02:29:47.355Z,13.00
2022-10-02T02:30:47.510Z,12.80
2022-10-02T02:31:47.569Z,12.60
2022-10-02T02:32:47.646Z,12.50
2022-10-02T02:33:47.540Z,14.30
2022-10-02T02:34:47.568Z,12.90
2022-10-02T02:35:47.553Z,15.00
2022-10-02T02:36:47.597Z,14.10
2022-10-02T02:37:47.596Z,15.20
2022-10-02T02:38:47.657Z,17.60
2022-10-02T02:39:47.642Z,15.30
2022-10-02T02:40:47.694Z,16.60
2022-10-02T02:41:47.689Z,16.80
2022-10-02T02:43:53.641Z,16.50
2022-10-02T02:44:53.798Z,17.40
2022-10-02T02:45:53.855Z,17.40
2022-10-02T02:46:53.851Z,16.20
2022-10-02T02:47:53.847Z,18.40
2022-10-02T02:48:54.007Z,19.30
2022-10-02T02:49:53.880Z,17.30
2022-10-02T02:50:53.948Z,19.20
2022-10-02T02:51:53.921Z,19.40
2022-10-02T02:52:53.983Z,20.60
2022-10-02T02:53:53.970Z,19.70
2022-10-02T02:54:54.042Z,17.50
2022-10-02T02:55:54.024Z,20.30
2022-10-02T02:56:54.084Z,21.00
2022-10-02T02:57:54.052Z,20.60
2022-10-02T02:58:54.103Z,21.00
2022-10-02T02:59:54.127Z,21.30
2022-10-02T03:00:54.408Z,22.50
2022-10-02T03:01:54.190Z,20.30
2022-10-02T03:02:54.175Z,21.80
2022-10-02T03:03:54.153Z,19.70
2022-10-02T03:04:54.192Z,22.20
2022-10-02T03:05:54.184Z,24.40
2022-10-02T03:06:54.611Z,20.80
2022-10-02T03:07:54.211Z,23.80
2022-10-02T03:08:54.243Z,19.00
2022-10-02T03:09:54.246Z,20.40
2022-10-02T03:10:54.339Z,22.20
2022-10-02T03:11:54.271Z,22.00
2022-10-02T03:12:54.333Z,21.90
2022-10-02T03:13:54.311Z,20.90
2022-10-02T03:14:54.342Z,22.30
2022-10-02T03:15:54.572Z,21.40
2022-10-02T03:16:54.413Z,22.20
2022-10-02T03:17:54.408Z,21.40
2022-10-02T03:18:54.895Z,20.70
2022-10-02T03:19:54.479Z,21.70
2022-10-02T03:20:54.526Z,22.40
2022-10-02T03:21:54.493Z,22.20
2022-10-02T03:22:54.543Z,22.50
2022-10-02T03:23:54.589Z,21.50
2022-10-02T03:24:54.597Z,22.50
2022-10-02T03:25:54.640Z,22.30
2022-10-02T03:27:00.546Z,21.50
2022-10-02T03:28:00.776Z,23.20
2022-10-02T03:29:00.787Z,23.30
2022-10-02T03:30:00.720Z,25.00
2022-10-02T03:31:00.834Z,23.30
2022-10-02T03:32:00.759Z,23.70
2022-10-02T03:33:00.783Z,21.30
2022-10-02T03:34:00.819Z,23.30
2022-10-02T03:35:00.826Z,25.20
2022-10-02T03:36:00.853Z,23.30
2022-10-02T03:37:00.863Z,24.10
2022-10-02T03:38:00.893Z,23.50
2022-10-02T03:39:23.760Z,23.20
2022-10-02T03:40:05.829Z,24.80
2022-10-02T03:41:06.018Z,21.80
2022-10-02T03:42:05.968Z,21.70
2022-10-02T03:43:06.020Z,23.30
2022-10-02T03:44:06.013Z,20.90
2022-10-02T03:45:06.080Z,22.50
2022-10-02T03:46:06.211Z,22.30
2022-10-02T03:47:06.123Z,24.50
2022-10-02T03:48:06.123Z,24.70
2022-10-02T03:49:06.178Z,25.00
2022-10-02T03:50:06.182Z,26.20
2022-10-02T03:51:06.358Z,25.40
2022-10-02T03:52:06.248Z,23.60
2022-10-02T03:53:06.303Z,22.80
2022-10-02T03:54:06.324Z,25.60
2022-10-02T03:55:06.374Z,24.40
2022-10-02T03:56:06.412Z,21.00
2022-10-02T03:57:06.435Z,22.40
2022-10-02T03:58:06.447Z,23.40
2022-10-02T03:59:06.481Z,23.90
2022-10-02T04:00:06.482Z,22.80
2022-10-02T04:01:06.679Z,24.20
2022-10-02T04:02:06.580Z,23.20
2022-10-02T04:03:06.584Z,26.10
2022-10-02T04:04:06.604Z,23.60
2022-10-02T04:05:06.639Z,25.30
2022-10-02T04:06:06.661Z,23.10
2022-10-02T04:07:06.692Z,24.20
2022-10-02T04:08:06.695Z,24.40
2022-10-02T04:09:11.672Z,23.70
2022-10-02T04:10:16.713Z,22.10
2022-10-02T04:11:16.915Z,23.60
2022-10-02T04:12:16.805Z,21.80
2022-10-02T04:13:16.830Z,22.70
2022-10-02T04:14:16.843Z,24.70
2022-10-02T04:15:16.926Z,21.20
2022-10-02T04:16:16.941Z,23.80
2022-10-02T04:17:17.074Z,22.30
2022-10-02T04:18:16.933Z,22.20
2022-10-02T04:19:16.977Z,22.60
2022-10-02T04:20:16.997Z,20.10
2022-10-02T04:21:17.082Z,22.10
2022-10-02T04:22:17.053Z,22.60
2022-10-02T04:23:17.200Z,19.90
2022-10-02T04:24:17.100Z,20.50
2022-10-02T04:25:17.164Z,22.30
2022-10-02T04:26:17.155Z,22.80
2022-10-02T04:27:17.196Z,21.90
2022-10-02T04:28:17.270Z,20.60
2022-10-02T04:29:17.241Z,21.60
2022-10-02T04:30:17.245Z,22.30
2022-10-02T04:31:17.489Z,22.30
2022-10-02T04:32:17.287Z,21.90
2022-10-02T04:33:17.356Z,20.60
2022-10-02T04:34:17.323Z,19.70
2022-10-02T04:35:17.369Z,20.30
2022-10-02T04:36:17.376Z,19.80
2022-10-02T04:38:23.474Z,20.00
2022-10-02T04:39:23.453Z,17.80
2022-10-02T04:40:23.454Z,20.90
2022-10-02T04:41:23.539Z,20.90
2022-10-02T04:42:23.511Z,19.00
2022-10-02T04:43:23.696Z,19.00
2022-10-02T04:44:23.560Z,18.20
2022-10-02T04:45:23.644Z,19.60
2022-10-02T04:46:23.605Z,22.50
2022-10-02T04:47:23.661Z,19.30
2022-10-02T04:48:23.652Z,20.40
2022-10-02T04:49:23.795Z,21.30
2022-10-02T04:50:23.692Z,22.90
2022-10-02T04:51:23.747Z,22.10
2022-10-02T04:52:23.747Z,22.50
2022-10-02T04:53:23.797Z,20.00
2022-10-02T04:54:23.817Z,18.80
2022-10-02T04:55:23.841Z,18.70
2022-10-02T04:56:23.857Z,17.80
2022-10-02T04:57:23.876Z,18.60
2022-10-02T04:58:23.909Z,19.60
2022-10-02T04:59:24.032Z,20.20
2022-10-02T05:00:23.925Z,19.90
2022-10-02T05:01:24.046Z,19.80
2022-10-02T05:02:24.040Z,18.80
2022-10-02T05:03:24.071Z,18.30
2022-10-02T05:04:24.079Z,17.60
2022-10-02T05:05:24.095Z,19.50
2022-10-02T05:06:24.101Z,17.80
2022-10-02T05:07:24.192Z,21.70
2022-10-02T05:08:24.174Z,21.20
2022-10-02T05:09:28.309Z,20.90
2022-10-02T05:10:24.231Z,21.20
2022-10-02T05:11:24.297Z,18.40
2022-10-02T05:12:24.276Z,20.30
2022-10-02T05:13:24.306Z,20.20
2022-10-02T05:14:24.331Z,20.50
2022-10-02T05:15:24.352Z,20.10
2022-10-02T05:16:24.348Z,20.50
2022-10-02T05:17:24.360Z,18.10
2022-10-02T05:18:24.367Z,20.60
2022-10-02T05:19:24.426Z,21.50
2022-10-02T05:20:24.393Z,23.30
2022-10-02T05:21:24.469Z,22.60
2022-10-02T05:22:24.453Z,22.50
2022-10-02T05:23:30.391Z,21.20
2022-10-02T05:24:30.533Z,21.60
2022-10-02T05:25:30.528Z,21.90
2022-10-02T05:26:30.562Z,21.70
2022-10-02T05:27:30.543Z,22.20
2022-10-02T05:28:30.660Z,18.90
2022-10-02T05:29:30.616Z,19.40
2022-10-02T05:30:30.626Z,19.80
2022-10-02T05:31:30.698Z,20.80
2022-10-02T05:32:30.692Z,20.70
2022-10-02T05:33:30.665Z,20.60
2022-10-02T05:34:30.736Z,20.90
2022-10-02T05:35:30.736Z,20.80
2022-10-02T05:38:24.716Z,19.20
2022-10-02T05:39:24.775Z,20.20
2022-10-02T05:40:24.955Z,18.50
2022-10-02T05:41:24.812Z,21.30
2022-10-02T05:42:24.897Z,17.20
2022-10-02T05:43:24.874Z,18.30
2022-10-02T05:44:24.909Z,19.50
2022-10-02T05:45:24.906Z,17.50
2022-10-02T05:46:25.013Z,19.10
2022-10-02T05:47:24.966Z,18.90
2022-10-02T05:48:25.013Z,20.40
2022-10-02T05:49:25.042Z,18.00
2022-10-02T05:50:25.070Z,19.40
2022-10-02T05:52:30.185Z,17.30
2022-10-02T05:53:30.154Z,17.30
2022-10-02T05:54:30.158Z,17.30
2022-10-02T05:55:30.325Z,18.10
2022-10-02T05:56:30.229Z,16.00
2022-10-02T05:57:30.332Z,14.20
2022-10-02T05:58:30.303Z,15.90
2022-10-02T05:59:30.324Z,17.90
2022-10-02T06:00:30.357Z,17.00
2022-10-02T06:01:30.487Z,16.20
2022-10-02T06:02:30.464Z,16.10
2022-10-02T06:03:30.439Z,17.30
2022-10-02T06:04:30.433Z,15.10
2022-10-02T06:05:30.494Z,14.50
2022-10-02T06:06:30.490Z,15.00
2022-10-02T06:07:30.549Z,14.60
2022-10-02T06:08:30.570Z,15.40
2022-10-02T06:09:30.631Z,15.40
2022-10-02T06:10:30.644Z,17.00
2022-10-02T06:11:30.680Z,15.80
2022-10-02T06:12:30.714Z,14.80
2022-10-02T06:13:30.761Z,16.80
2022-10-02T06:14:30.770Z,16.40
2022-10-02T06:15:30.893Z,14.60
2022-10-02T06:16:30.862Z,15.80
2022-10-02T06:17:30.842Z,15.60
2022-10-02T06:18:30.886Z,15.10
2022-10-02T06:19:30.908Z,15.00
2022-10-02T06:20:30.954Z,17.50
2022-10-02T06:21:30.997Z,16.20
2022-10-02T06:22:31.005Z,16.20
2022-10-02T06:23:31.067Z,18.10
2022-10-02T06:24:31.058Z,16.10
2022-10-02T06:25:31.235Z,17.10
2022-10-02T06:26:31.133Z,17.40
2022-10-02T06:27:31.187Z,16.70
2022-10-02T06:28:31.252Z,16.20
2022-10-02T06:29:31.274Z,16.00
2022-10-02T06:30:31.300Z,17.40
2022-10-02T06:31:31.353Z,17.30
2022-10-02T06:32:31.330Z,16.70
2022-10-02T06:33:31.355Z,16.70
2022-10-02T06:34:31.373Z,16.90
2022-10-02T06:35:31.580Z,16.40
2022-10-02T06:36:31.414Z,16.10
2022-10-02T06:37:31.464Z,18.40
2022-10-02T06:38:31.483Z,19.10
2022-10-02T06:39:31.918Z,18.50
2022-10-02T06:40:31.550Z,17.60
2022-10-02T06:41:31.695Z,16.20
2022-10-02T06:42:31.601Z,18.10
2022-10-02T06:43:31.635Z,18.20
2022-10-02T06:44:31.667Z,18.20
2022-10-02T06:45:31.715Z,17.20
2022-10-02T06:46:31.692Z,17.80
2022-10-02T06:47:31.747Z,16.90
2022-10-02T06:48:31.745Z,20.20
2022-10-02T06:49:32.480Z,18.20
2022-10-02T06:50:37.714Z,18.60
2022-10-02T06:51:37.890Z,17.30
2022-10-02T06:52:38.436Z,19.30
2022-10-02T06:53:37.917Z,18.70
2022-10-02T06:54:37.948Z,16.50
2022-10-02T06:55:37.997Z,19.20
2022-10-02T06:56:38.261Z,19.20
2022-10-02T06:57:38.082Z,20.70
2022-10-02T06:58:38.070Z,19.10
2022-10-02T06:59:38.153Z,18.20
2022-10-02T07:00:38.226Z,19.60
2022-10-02T07:01:38.178Z,18.30
2022-10-02T07:02:38.283Z,17.70
2022-10-02T07:03:38.192Z,18.60
2022-10-02T07:04:38.205Z,17.20
2022-10-02T07:05:38.199Z,15.90
2022-10-02T07:06:38.900Z,17.20
2022-10-02T07:07:38.396Z,16.20
2022-10-02T07:08:38.307Z,16.50
2022-10-02T07:09:38.346Z,15.40
2022-10-02T07:10:38.413Z,16.40
2022-10-02T07:11:43.308Z,14.00
2022-10-02T07:12:48.356Z,17.50
2022-10-02T07:13:48.460Z,14.70
2022-10-02T07:14:48.455Z,15.30
2022-10-02T07:15:48.494Z,14.70
2022-10-02T07:16:48.543Z,13.10
2022-10-02T07:17:48.577Z,13.40
2022-10-02T07:18:48.552Z,13.30
2022-10-02T07:19:48.600Z,14.00
2022-10-02T07:20:48.588Z,11.90
2022-10-02T07:21:48.685Z,12.70
2022-10-02T07:22:48.773Z,12.50
2022-10-02T07:23:48.687Z,13.90
2022-10-02T07:24:48.677Z,12.00
2022-10-02T07:25:48.728Z,11.90
2022-10-02T07:26:48.734Z,11.90
2022-10-02T07:27:48.930Z,12.70
2022-10-02T07:28:48.817Z,12.90
2022-10-02T07:29:48.848Z,12.20
2022-10-02T07:30:48.852Z,11.60
2022-10-02T07:31:49.067Z,13.10
2022-10-02T07:32:48.925Z,12.20
2022-10-02T07:33:49.058Z,12.20
2022-10-02T07:34:48.967Z,12.30
2022-10-02T07:35:49.010Z,12.50
2022-10-02T07:36:49.021Z,14.80
2022-10-02T07:37:49.061Z,10.90
2022-10-02T07:38:49.040Z,10.70
2022-10-02T07:39:49.226Z,11.60
2022-10-02T07:40:49.103Z,12.00
2022-10-02T07:41:49.144Z,11.70
2022-10-02T07:42:49.295Z,11.20
2022-10-02T07:43:49.202Z,12.30
2022-10-02T07:44:49.190Z,12.60
2022-10-02T07:45:49.451Z,10.80
2022-10-02T07:46:49.246Z,12.10
2022-10-02T07:47:49.303Z,11.90
2022-10-02T07:48:49.298Z,13.60
2022-10-02T07:49:49.342Z,10.90
2022-10-02T07:50:49.348Z,11.40
2022-10-02T07:51:49.430Z,11.60
2022-10-02T07:52:49.437Z,11.90
2022-10-02T07:53:49.445Z,11.30
2022-10-02T07:54:49.472Z,10.50
2022-10-02T07:55:55.394Z,11.80
2022-10-02T07:56:55.664Z,11.90
2022-10-02T07:57:55.518Z,11.20
2022-10-02T07:58:55.561Z,11.20
2022-10-02T07:59:55.564Z,13.40
2022-10-02T08:00:55.603Z,12.60
2022-10-02T08:01:55.693Z,12.20
2022-10-02T08:02:56.257Z,11.40
2022-10-02T08:03:55.659Z,12.30
2022-10-02T08:04:55.709Z,12.20
2022-10-02T08:05:55.704Z,11.20
2022-10-02T08:06:55.750Z,10.80
2022-10-02T08:07:55.781Z,11.60
2022-10-02T08:08:55.941Z,12.20
2022-10-02T08:09:55.827Z,10.80
2022-10-02T08:10:55.874Z,10.70
2022-10-02T08:11:55.865Z,11.30
2022-10-02T08:12:56.032Z,10.00
2022-10-02T08:13:55.927Z,10.50
2022-10-02T08:14:56.056Z,10.30
2022-10-02T08:15:56.052Z,10.20
2022-10-02T08:16:56.044Z,10.50
2022-10-02T08:17:57.120Z,10.70
2022-10-02T08:18:56.052Z,10.30
2022-10-02T08:19:56.081Z,9.70
2022-10-02T08:20:56.106Z,10.60
2022-10-02T08:21:56.107Z,10.50
2022-10-02T08:23:02.182Z,8.80
2022-10-02T08:24:02.200Z,9.50
2022-10-02T08:25:02.231Z,10.30
2022-10-02T08:26:02.247Z,9.40
2022-10-02T08:27:02.278Z,9.70
2022-10-02T08:28:02.365Z,9.50
2022-10-02T08:29:02.329Z,9.80
2022-10-02T08:30:02.498Z,9.40
2022-10-02T08:31:02.393Z,9.60
2022-10-02T08:32:02.481Z,9.10
2022-10-02T08:33:02.518Z,9.40
2022-10-02T08:34:02.482Z,9.40
2022-10-02T08:35:02.515Z,10.30
2022-10-02T08:36:02.551Z,8.70
2022-10-02T08:37:02.553Z,9.00
2022-10-02T08:38:02.632Z,9.70
2022-10-02T08:39:02.618Z,8.60
2022-10-02T08:40:02.819Z,9.10
2022-10-02T08:41:02.676Z,8.70
2022-10-02T08:42:02.741Z,8.80
2022-10-02T08:43:02.899Z,8.80
2022-10-02T08:44:02.822Z,8.40
2022-10-02T08:45:02.879Z,8.50
2022-10-02T08:46:02.991Z,8.10
2022-10-02T08:47:02.902Z,7.60
2022-10-02T08:48:02.946Z,8.20
2022-10-02T08:49:02.960Z,7.30
2022-10-02T08:50:03.062Z,7.30
2022-10-02T08:51:03.018Z,7.60
2022-10-02T08:52:03.095Z,7.30
2022-10-02T08:53:03.210Z,7.20
2022-10-02T08:54:03.157Z,7.50
2022-10-02T08:55:03.274Z,6.90
2022-10-02T08:56:03.224Z,7.20
2022-10-02T08:57:03.237Z,7.70
2022-10-02T08:58:03.280Z,6.50
2022-10-02T08:59:03.316Z,6.80
2022-10-02T09:00:03.481Z,6.60
2022-10-02T09:01:03.444Z,7.70
2022-10-02T09:02:03.522Z,7.30
2022-10-02T09:03:03.991Z,7.20
2022-10-02T09:04:03.483Z,7.70
2022-10-02T09:05:03.512Z,6.90
2022-10-02T09:06:03.549Z,6.90
2022-10-02T09:07:03.561Z,6.60
2022-10-02T09:08:03.609Z,6.20
2022-10-02T09:09:03.629Z,6.30
2022-10-02T09:10:03.830Z,6.60
2022-10-02T09:11:03.703Z,6.70
2022-10-02T09:12:03.749Z,6.10
2022-10-02T09:13:03.763Z,6.60
2022-10-02T09:14:04.207Z,6.00
2022-10-02T09:15:03.859Z,6.90
2022-10-02T09:16:03.991Z,6.60
2022-10-02T09:17:03.942Z,7.70
2022-10-02T09:18:03.985Z,7.20
2022-10-02T09:19:03.990Z,5.70
2022-10-02T09:20:04.131Z,6.60
2022-10-02T09:21:07.019Z,5.90
2022-10-02T09:22:04.103Z,6.70
2022-10-02T09:23:04.125Z,7.80
2022-10-02T09:24:04.185Z,7.10
2022-10-02T09:25:04.308Z,6.10
2022-10-02T09:26:04.264Z,6.80
2022-10-02T09:27:04.269Z,6.80
2022-10-02T09:28:04.420Z,6.90
2022-10-02T09:29:04.340Z,6.40
2022-10-02T09:30:04.417Z,6.60
2022-10-02T09:31:04.407Z,6.40
2022-10-02T09:32:04.499Z,5.90
2022-10-02T09:33:04.495Z,5.90
2022-10-02T09:34:04.570Z,5.80
2022-10-02T09:35:04.701Z,6.40
2022-10-02T09:36:04.653Z,7.50
2022-10-02T09:37:05.013Z,6.10
2022-10-02T09:38:04.752Z,6.10
2022-10-02T09:39:04.756Z,6.20
2022-10-02T09:40:04.919Z,6.70
2022-10-02T09:41:04.839Z,6.30
2022-10-02T09:42:04.896Z,5.80
2022-10-02T09:43:04.903Z,6.10
2022-10-02T09:44:04.968Z,5.70
2022-10-02T09:45:05.099Z,6.30
2022-10-02T09:46:05.156Z,6.00
2022-10-02T09:47:05.062Z,5.60
2022-10-02T09:48:05.162Z,5.50
2022-10-02T09:49:05.169Z,5.30
2022-10-02T09:50:05.309Z,5.60
2022-10-02T09:51:05.225Z,5.90
2022-10-02T09:52:05.291Z,6.30
2022-10-02T09:53:05.315Z,5.10
2022-10-02T09:54:05.373Z,5.60
2022-10-02T09:55:05.535Z,5.70
2022-10-02T09:56:05.479Z,5.20
2022-10-02T09:57:05.472Z,5.40
2022-10-02T09:58:05.546Z,5.30
2022-10-02T09:59:05.604Z,5.10
2022-10-02T10:00:05.642Z,5.70
2022-10-02T10:02:59.652Z,5.20
2022-10-02T10:03:59.761Z,5.40
2022-10-02T10:05:06.052Z,5.20
2022-10-02T10:05:59.982Z,6.00
2022-10-02T10:06:59.882Z,5.20
2022-10-02T10:07:59.937Z,5.20
2022-10-02T10:08:59.945Z,5.30
2022-10-02T10:10:00.022Z,5.20
2022-10-02T10:11:00.150Z,4.90
2022-10-02T10:12:05.019Z,5.50
2022-10-02T10:13:05.162Z,5.30
2022-10-02T10:14:05.164Z,5.20
2022-10-02T10:15:08.880Z,5.00
2022-10-02T10:16:05.410Z,5.50
2022-10-02T10:17:05.597Z,4.90
2022-10-02T10:18:05.767Z,4.40
2022-10-02T10:19:05.633Z,5.40
2022-10-02T10:20:05.715Z,5.40
2022-10-02T10:21:11.724Z,5.60
2022-10-02T10:22:11.579Z,5.70
2022-10-02T10:23:11.815Z,5.50
2022-10-02T10:24:11.869Z,5.00
2022-10-02T10:25:11.944Z,6.10
2022-10-02T10:26:11.834Z,5.30
2022-10-02T10:27:11.742Z,5.10
2022-10-02T10:28:11.845Z,4.70
2022-10-02T10:29:11.823Z,4.80
2022-10-02T10:30:11.926Z,5.10
2022-10-02T10:31:12.016Z,5.10
2022-10-02T10:32:11.975Z,4.90
2022-10-02T10:33:12.046Z,4.90
2022-10-02T10:34:12.090Z,4.70
2022-10-02T10:35:12.095Z,4.50
2022-10-02T10:36:12.258Z,4.60
2022-10-02T10:37:12.188Z,4.80
2022-10-02T10:38:12.265Z,3.90
2022-10-02T10:39:12.301Z,5.10
2022-10-02T10:40:12.393Z,5.40
2022-10-02T10:41:12.543Z,5.00
2022-10-02T10:42:12.484Z,5.60
2022-10-02T10:43:15.870Z,4.70
2022-10-02T10:44:12.598Z,4.30
2022-10-02T10:45:12.592Z,4.30
2022-10-02T10:46:12.850Z,4.50
2022-10-02T10:47:12.698Z,3.70
2022-10-02T10:48:12.754Z,4.50
2022-10-02T10:49:12.789Z,4.80
2022-10-02T10:50:12.851Z,4.50
2022-10-02T10:51:12.990Z,5.50
2022-10-02T10:52:12.931Z,4.70
2022-10-02T10:53:12.961Z,4.40
2022-10-02T10:54:13.025Z,4.30
2022-10-02T10:55:13.077Z,3.80
2022-10-02T10:56:13.152Z,3.80
2022-10-02T10:57:13.163Z,4.50
2022-10-02T10:58:13.218Z,3.80
2022-10-02T10:59:13.233Z,4.80
2022-10-02T11:00:13.440Z,4.20
2022-10-02T11:01:13.483Z,4.40
2022-10-02T11:02:13.442Z,3.80
2022-10-02T11:03:13.443Z,3.90
2022-10-02T11:04:13.489Z,4.80
2022-10-02T11:05:13.615Z,4.80
2022-10-02T11:06:13.558Z,4.60
2022-10-02T11:07:13.608Z,4.10
2022-10-02T11:08:13.654Z,5.30
2022-10-02T11:09:13.658Z,4.80
2022-10-02T11:10:13.867Z,3.90
2022-10-02T11:11:13.858Z,4.70
2022-10-02T11:12:13.834Z,4.50
2022-10-02T11:13:13.832Z,4.30
2022-10-02T11:14:13.905Z,4.00
2022-10-02T11:15:14.044Z,4.40
2022-10-02T11:16:14.116Z,4.80
2022-10-02T11:17:14.025Z,4.10
2022-10-02T11:18:14.103Z,3.60
2022-10-02T11:19:17.888Z,4.20
2022-10-02T11:20:14.341Z,3.70
2022-10-02T11:21:14.374Z,3.80
2022-10-02T11:22:14.297Z,4.80
2022-10-02T11:23:14.303Z,4.60
2022-10-02T11:24:14.374Z,3.90
2022-10-02T11:25:14.539Z,4.10
2022-10-02T11:26:14.473Z,4.40
2022-10-02T11:27:14.506Z,3.80
2022-10-02T11:28:18.535Z,4.30
2022-10-02T11:29:18.626Z,4.60
2022-10-02T11:30:18.676Z,4.40
2022-10-02T11:31:18.902Z,3.70
2022-10-02T11:32:18.747Z,4.00
2022-10-02T11:33:18.804Z,4.40
2022-10-02T11:34:18.836Z,4.20
2022-10-02T11:35:19.033Z,4.00
2022-10-02T11:36:18.947Z,4.20
2022-10-02T11:37:19.027Z,4.10
2022-10-02T11:38:19.038Z,4.50
2022-10-02T11:39:19.155Z,4.60
2022-10-02T11:40:19.284Z,4.30
2022-10-02T11:41:19.243Z,4.80
2022-10-02T11:42:19.254Z,4.00
2022-10-02T11:43:19.323Z,4.40
2022-10-02T11:44:19.349Z,4.10
2022-10-02T11:45:19.449Z,4.30
2022-10-02T11:46:19.511Z,4.20
2022-10-02T11:47:19.513Z,4.90
2022-10-02T11:48:19.531Z,3.90
2022-10-02T11:49:19.613Z,4.60
2022-10-02T11:50:19.712Z,3.90
2022-10-02T11:51:19.858Z,4.00
2022-10-02T11:52:20.404Z,4.00
2022-10-02T11:53:24.686Z,3.70
2022-10-02T11:54:24.855Z,3.90
2022-10-02T11:55:24.921Z,4.10
2022-10-02T11:56:24.950Z,4.70
2022-10-02T11:57:24.985Z,3.80
2022-10-02T11:58:25.088Z,3.90
2022-10-02T11:59:25.069Z,3.90
2022-10-02T12:00:25.641Z,3.70
2022-10-02T12:01:25.281Z,3.60
2022-10-02T12:02:25.441Z,3.90
2022-10-02T12:03:25.305Z,4.30
2022-10-02T12:04:25.334Z,4.30
2022-10-02T12:05:25.336Z,3.80
2022-10-02T12:06:25.494Z,4.30
2022-10-02T12:07:25.410Z,4.70
2022-10-02T12:08:25.473Z,4.20
2022-10-02T12:09:25.496Z,3.90
2022-10-02T12:10:25.565Z,4.30
2022-10-02T12:11:25.707Z,4.40
2022-10-02T12:12:27.849Z,3.80
2022-10-02T12:13:25.772Z,3.90
2022-10-02T12:14:25.764Z,3.70
2022-10-02T12:15:25.782Z,4.30
2022-10-02T12:16:26.082Z,3.90
2022-10-02T12:17:25.882Z,4.40
2022-10-02T12:18:25.942Z,3.70
2022-10-02T12:19:25.975Z,4.30
2022-10-02T12:20:26.041Z,3.90
2022-10-02T12:21:26.197Z,3.70
2022-10-02T12:22:26.138Z,4.50
2022-10-02T12:23:26.165Z,3.60
2022-10-02T12:24:26.247Z,4.50
2022-10-02T12:25:26.272Z,3.90
2022-10-02T12:26:26.483Z,4.30
2022-10-02T12:27:26.375Z,4.10
2022-10-02T12:28:26.532Z,4.70
2022-10-02T12:29:26.514Z,4.40
2022-10-02T12:30:26.548Z,4.20
2022-10-02T12:31:26.729Z,3.90
2022-10-02T12:32:26.600Z,3.80
2022-10-02T12:33:26.695Z,4.40
2022-10-02T12:34:26.711Z,3.90
2022-10-02T12:35:26.767Z,4.30
2022-10-02T12:36:26.920Z,3.20
2022-10-02T12:37:26.848Z,4.10
2022-10-02T12:38:26.952Z,3.90
2022-10-02T12:39:27.010Z,3.50
2022-10-02T12:40:27.003Z,4.50
2022-10-02T12:41:27.165Z,3.60
2022-10-02T12:42:27.142Z,4.50
2022-10-02T12:43:27.131Z,3.60
2022-10-02T12:44:27.221Z,3.40
2022-10-02T12:46:31.243Z,3.90
2022-10-02T12:47:32.357Z,4.10
2022-10-02T12:48:32.425Z,4.00
2022-10-02T12:49:32.465Z,4.60
2022-10-02T12:50:32.506Z,3.60
2022-10-02T12:51:32.708Z,3.90
2022-10-02T12:52:32.653Z,3.70
2022-10-02T12:53:36.582Z,4.20
2022-10-02T12:54:36.771Z,3.50
2022-10-02T12:55:36.821Z,4.60
2022-10-02T12:56:36.854Z,3.80
2022-10-02T12:57:39.344Z,4.20
2022-10-02T12:58:36.958Z,4.50
2022-10-02T12:59:36.976Z,3.80
2022-10-02T13:00:37.149Z,4.20
2022-10-02T13:01:37.537Z,3.90
2022-10-02T13:02:59.281Z,3.60
2022-10-02T13:03:37.203Z,4.30
2022-10-02T13:04:37.262Z,4.20
2022-10-02T13:05:37.468Z,3.40
2022-10-02T13:06:37.377Z,3.80
2022-10-02T13:07:37.435Z,4.30
2022-10-02T13:08:37.469Z,3.30
2022-10-02T13:09:37.532Z,4.00
2022-10-02T13:10:37.750Z,3.70
2022-10-02T13:11:37.951Z,4.40
2022-10-02T13:12:42.592Z,3.70
2022-10-02T13:13:42.729Z,3.60
2022-10-02T13:14:42.758Z,3.90
2022-10-02T13:15:43.547Z,4.20
2022-10-02T13:16:42.923Z,4.20
2022-10-02T13:17:42.958Z,4.80